createdAt,value
2022-12-03T00:00:16.431Z,18.33
2022-12-03T00:02:45.157Z,18.60
2022-12-03T00:05:14.045Z,20.97
2022-12-03T00:07:42.735Z,20.20
2022-12-03T00:10:13.526Z,20.40
2022-12-03T00:12:42.196Z,23.40
2022-12-03T00:15:11.998Z,21.67
2022-12-03T00:17:40.601Z,21.80
2022-12-03T00:20:10.307Z,18.97
2022-12-03T00:22:38.911Z,21.27
2022-12-03T00:25:08.873Z,19.97
2022-12-03T00:27:38.886Z,21.40
2022-12-03T00:30:08.672Z,22.43
2022-12-03T00:32:37.434Z,24.70
2022-12-03T00:35:06.705Z,23.03
2022-12-03T00:37:35.790Z,21.00
2022-12-03T00:40:04.884Z,23.70
2022-12-03T00:42:33.631Z,21.90
2022-12-03T00:45:03.617Z,24.67
2022-12-03T00:47:32.243Z,20.93
2022-12-03T00:50:00.833Z,21.47
2022-12-03T00:52:29.415Z,26.03
2022-12-03T00:54:57.975Z,23.03
2022-12-03T00:57:26.615Z,21.23
2022-12-03T00:59:55.240Z,23.83
2022-12-03T01:02:25.220Z,23.40
2022-12-03T01:04:54.066Z,23.43
2022-12-03T01:07:22.936Z,21.87
2022-12-03T01:09:51.638Z,25.37
2022-12-03T01:12:20.247Z,22.00
2022-12-03T01:14:48.846Z,20.77
2022-12-03T01:17:17.431Z,23.43
2022-12-03T01:19:48.541Z,24.27
2022-12-03T01:22:17.375Z,23.80
2022-12-03T01:24:46.050Z,25.40
2022-12-03T01:27:14.633Z,22.07
2022-12-03T01:29:43.302Z,21.70
2022-12-03T01:32:17.826Z,21.07
2022-12-03T01:34:49.192Z,23.90
2022-12-03T01:37:18.752Z,25.10
2022-12-03T01:39:47.367Z,24.37
2022-12-03T01:42:18.802Z,27.80
2022-12-03T01:44:47.797Z,22.40
2022-12-03T01:47:18.435Z,20.10
2022-12-03T01:49:50.845Z,25.30
2022-12-03T01:52:21.062Z,23.93
2022-12-03T01:54:52.343Z,21.10
2022-12-03T01:57:23.491Z,23.33
2022-12-03T01:59:52.867Z,22.97
2022-12-03T02:02:24.532Z,26.70
2022-12-03T02:04:55.203Z,22.03
2022-12-03T02:07:27.179Z,21.30
2022-12-03T02:09:58.182Z,20.87
2022-12-03T02:12:31.142Z,22.80
2022-12-03T02:15:00.021Z,24.10
2022-12-03T02:17:28.890Z,21.83
2022-12-03T02:19:59.663Z,23.63
2022-12-03T02:22:33.997Z,18.70
2022-12-03T02:25:13.243Z,20.10
2022-12-03T02:27:42.117Z,22.83
2022-12-03T02:30:13.124Z,21.97
2022-12-03T02:32:41.728Z,22.97
2022-12-03T02:35:15.762Z,20.83
2022-12-03T02:37:45.371Z,23.67
2022-12-03T02:40:18.257Z,21.20
2022-12-03T02:42:47.804Z,19.00
2022-12-03T02:45:19.634Z,22.30
2022-12-03T02:47:51.859Z,23.33
2022-12-03T02:50:21.930Z,21.73
2022-12-03T02:52:50.755Z,22.43
2022-12-03T02:55:21.025Z,20.33
2022-12-03T02:57:50.436Z,20.80
2022-12-03T03:00:20.270Z,21.77
2022-12-03T03:02:50.624Z,19.97
2022-12-03T03:05:21.691Z,20.77
2022-12-03T03:07:51.150Z,21.57
2022-12-03T03:10:23.287Z,22.53
2022-12-03T03:12:54.270Z,21.23
2022-12-03T03:15:23.404Z,18.13
2022-12-03T03:17:52.136Z,20.23
2022-12-03T03:20:21.237Z,18.67
2022-12-03T03:22:49.881Z,22.70
2022-12-03T03:25:22.404Z,19.73
2022-12-03T03:27:51.083Z,20.90
2022-12-03T03:30:19.855Z,21.10
2022-12-03T03:32:48.465Z,24.70
2022-12-03T03:35:17.975Z,18.73
2022-12-03T03:37:46.689Z,18.20
2022-12-03T03:40:15.338Z,23.37
2022-12-03T03:42:45.317Z,20.17
2022-12-03T03:45:13.952Z,21.73
2022-12-03T03:47:42.779Z,19.93
2022-12-03T03:50:13.492Z,21.17
2022-12-03T03:52:42.632Z,17.90
2022-12-03T03:55:11.994Z,20.70
2022-12-03T03:57:40.836Z,19.07
2022-12-03T04:00:12.280Z,20.90
2022-12-03T04:02:41.677Z,17.90
2022-12-03T04:05:12.671Z,25.47
2022-12-03T04:07:41.303Z,20.80
2022-12-03T04:10:39.531Z,23.10
2022-12-03T04:13:07.121Z,17.90
2022-12-03T04:15:37.075Z,21.37
2022-12-03T04:18:23.808Z,21.50
2022-12-03T04:21:12.376Z,20.83
2022-12-03T04:23:40.041Z,24.30
2022-12-03T04:26:26.546Z,21.33
2022-12-03T04:28:55.198Z,18.67
2022-12-03T04:31:42.909Z,20.77
2022-12-03T04:34:29.310Z,22.03
2022-12-03T04:36:57.888Z,21.90
2022-12-03T04:39:26.504Z,19.97
2022-12-03T04:41:55.103Z,24.73
2022-12-03T04:44:36.784Z,19.10
2022-12-03T04:47:09.243Z,18.17
2022-12-03T04:49:39.804Z,21.83
2022-12-03T04:52:08.796Z,21.90
2022-12-03T04:54:37.456Z,23.63
2022-12-03T04:57:06.665Z,22.77
2022-12-03T04:59:36.145Z,20.53
2022-12-03T05:02:05.543Z,21.90
2022-12-03T05:04:35.671Z,22.50
2022-12-03T05:07:04.460Z,24.07
2022-12-03T05:09:33.094Z,21.47
2022-12-03T05:12:01.729Z,20.30
2022-12-03T05:14:30.331Z,20.00
2022-12-03T05:16:59.001Z,20.70
2022-12-03T05:19:47.652Z,21.60
2022-12-03T05:22:16.599Z,20.10
2022-12-03T05:24:45.204Z,21.43
2022-12-03T05:27:15.795Z,20.27
2022-12-03T05:29:47.399Z,18.67
2022-12-03T05:32:16.064Z,22.30
2022-12-03T05:34:44.640Z,22.77
2022-12-03T05:37:13.209Z,18.20
2022-12-03T05:39:43.140Z,19.80
2022-12-03T05:42:29.802Z,24.80
2022-12-03T05:44:58.487Z,22.87
2022-12-03T05:47:27.093Z,24.20
2022-12-03T05:49:55.767Z,24.23
2022-12-03T05:52:24.350Z,24.43
2022-12-03T05:54:54.393Z,20.90
2022-12-03T05:57:23.083Z,21.13
2022-12-03T05:59:51.699Z,20.30
2022-12-03T06:02:20.354Z,19.63
2022-12-03T06:04:49.133Z,19.97
2022-12-03T06:07:17.720Z,21.97
2022-12-03T06:09:46.350Z,17.97
2022-12-03T06:12:16.287Z,20.87
2022-12-03T06:14:44.900Z,21.13
2022-12-03T06:17:13.514Z,20.43
2022-12-03T06:19:42.084Z,24.47
2022-12-03T06:22:10.698Z,21.27
2022-12-03T06:24:39.270Z,24.00
2022-12-03T06:27:07.891Z,22.37
2022-12-03T06:29:37.835Z,20.50
2022-12-03T06:32:06.976Z,26.50
2022-12-03T06:34:35.616Z,20.13
2022-12-03T06:37:04.289Z,23.20
2022-12-03T06:39:32.887Z,21.07
2022-12-03T06:42:01.447Z,20.80
2022-12-03T06:44:30.075Z,24.13
2022-12-03T06:47:00.117Z,20.17
2022-12-03T06:49:28.837Z,20.77
2022-12-03T06:51:57.402Z,23.90
2022-12-03T06:54:26.010Z,23.00
2022-12-03T06:56:54.603Z,21.50
2022-12-03T06:59:23.178Z,22.33
2022-12-03T07:01:51.808Z,24.80
2022-12-03T07:04:21.936Z,26.87
2022-12-03T07:06:50.610Z,28.07
2022-12-03T07:09:19.364Z,25.30
2022-12-03T07:11:47.999Z,24.40
2022-12-03T07:14:16.675Z,23.37
2022-12-03T07:16:45.416Z,28.10
2022-12-03T07:19:14.380Z,31.87
2022-12-03T07:21:44.371Z,24.53
2022-12-03T07:24:13.173Z,26.80
2022-12-03T07:26:41.806Z,26.40
2022-12-03T07:29:10.386Z,27.70
2022-12-03T07:31:39.051Z,25.60
2022-12-03T07:34:07.997Z,28.43
2022-12-03T07:36:36.616Z,28.03
2022-12-03T07:39:06.673Z,24.63
2022-12-03T07:41:35.287Z,26.10
2022-12-03T07:44:07.725Z,28.80
2022-12-03T07:46:39.515Z,26.43
2022-12-03T07:49:08.141Z,29.10
2022-12-03T07:51:36.766Z,26.13
2022-12-03T07:54:06.791Z,30.63
2022-12-03T07:56:35.554Z,25.30
2022-12-03T07:59:04.170Z,25.58
2022-12-03T08:01:32.862Z,25.87
2022-12-03T08:04:01.652Z,27.33
2022-12-03T08:06:30.355Z,23.90
2022-12-03T08:08:58.972Z,22.00
2022-12-03T08:11:30.061Z,24.80
2022-12-03T08:13:58.871Z,24.13
2022-12-03T08:16:27.596Z,22.97
2022-12-03T08:18:57.471Z,23.50
2022-12-03T08:21:29.389Z,24.63
2022-12-03T08:23:58.394Z,25.27
2022-12-03T08:26:30.604Z,21.53
2022-12-03T08:28:59.496Z,25.33
2022-12-03T08:31:33.120Z,26.03
2022-12-03T08:34:17.051Z,25.90
2022-12-03T08:36:46.790Z,37.13
2022-12-03T08:39:30.345Z,30.50
2022-12-03T08:42:26.640Z,26.47
2022-12-03T08:44:56.237Z,28.73
2022-12-03T08:47:25.653Z,31.13
2022-12-03T08:49:58.001Z,29.37
2022-12-03T08:52:32.954Z,27.27
2022-12-03T08:55:10.791Z,26.40
2022-12-03T08:57:43.323Z,28.50
2022-12-03T09:00:19.281Z,29.73
2022-12-03T09:02:50.621Z,25.33
2022-12-03T09:05:21.552Z,23.80
2022-12-03T09:07:50.336Z,29.13
2022-12-03T09:10:18.987Z,29.80
2022-12-03T09:12:48.929Z,26.97
2022-12-03T09:15:17.645Z,25.70
2022-12-03T09:17:46.244Z,21.73
2022-12-03T09:20:15.033Z,24.07
2022-12-03T09:22:43.748Z,23.00
2022-12-03T09:25:12.703Z,25.07
2022-12-03T09:27:41.402Z,26.00
2022-12-03T09:30:12.184Z,28.03
2022-12-03T09:32:40.855Z,25.23
2022-12-03T09:35:09.807Z,23.60
2022-12-03T09:37:38.392Z,25.20
2022-12-03T09:40:08.811Z,34.40
2022-12-03T09:42:37.538Z,22.67
2022-12-03T09:45:10.713Z,23.40
2022-12-03T09:47:41.682Z,23.10
2022-12-03T09:50:12.684Z,25.07
2022-12-03T09:52:41.410Z,20.20
2022-12-03T09:55:15.886Z,22.20
2022-12-03T09:57:44.603Z,23.17
2022-12-03T10:00:18.643Z,23.97
2022-12-03T10:02:48.966Z,20.43
2022-12-03T10:05:19.864Z,20.53
2022-12-03T10:07:49.167Z,23.43
2022-12-03T10:10:20.187Z,26.23
2022-12-03T10:12:49.072Z,21.67
2022-12-03T10:15:19.401Z,29.27
2022-12-03T10:17:51.607Z,19.93
2022-12-03T10:20:21.814Z,21.97
2022-12-03T10:22:50.640Z,22.73
2022-12-03T10:25:21.187Z,22.57
2022-12-03T10:27:57.493Z,21.23
2022-12-03T10:30:28.522Z,21.50
2022-12-03T10:33:02.597Z,23.43
2022-12-03T10:35:38.585Z,22.13
2022-12-03T10:38:08.316Z,21.70
2022-12-03T10:40:38.513Z,20.20
2022-12-03T10:43:21.578Z,18.30
2022-12-03T10:45:51.431Z,23.13
2022-12-03T10:48:25.438Z,21.07
2022-12-03T10:50:55.591Z,18.23
2022-12-03T10:53:28.054Z,19.53
2022-12-03T10:55:59.463Z,20.77
2022-12-03T10:58:29.844Z,22.90
2022-12-03T11:00:59.925Z,25.17
2022-12-03T11:03:31.282Z,17.80
2022-12-03T11:06:01.937Z,18.07
2022-12-03T11:08:32.837Z,17.87
2022-12-03T11:11:02.857Z,19.30
2022-12-03T11:13:46.643Z,21.97
2022-12-03T11:16:16.696Z,16.90
2022-12-03T11:19:03.096Z,19.40
2022-12-03T11:21:31.759Z,20.13
2022-12-03T11:24:20.091Z,17.07
2022-12-03T11:27:26.221Z,19.03
2022-12-03T11:29:57.159Z,21.67
2022-12-03T11:33:08.731Z,17.70
2022-12-03T11:36:15.204Z,22.90
2022-12-03T11:38:53.415Z,18.90
2022-12-03T11:41:28.777Z,25.50
2022-12-03T11:44:29.257Z,18.80
2022-12-03T11:46:59.615Z,18.23
2022-12-03T11:49:34.292Z,20.40
2022-12-03T11:52:19.210Z,18.40
2022-12-03T11:55:05.537Z,21.20
2022-12-03T11:57:36.684Z,18.37
2022-12-03T12:00:15.835Z,19.83
2022-12-03T12:02:44.976Z,20.85
2022-12-03T12:05:22.114Z,19.60
2022-12-03T12:07:52.791Z,17.97
2022-12-03T12:10:45.930Z,18.97
2022-12-03T12:13:57.381Z,17.80
2022-12-03T12:16:58.296Z,17.00
2022-12-03T12:19:46.420Z,21.17
2022-12-03T12:22:32.821Z,21.50
2022-12-03T12:25:03.701Z,20.87
2022-12-03T12:27:35.383Z,21.30
2022-12-03T12:30:07.007Z,23.23
2022-12-03T12:32:41.222Z,19.03
2022-12-03T12:35:17.113Z,21.73
2022-12-03T12:37:56.654Z,21.50
2022-12-03T12:40:30.811Z,21.53
2022-12-03T12:43:05.389Z,19.37
2022-12-03T12:45:41.076Z,24.07
2022-12-03T12:48:17.181Z,25.80
2022-12-03T12:50:47.583Z,23.97
2022-12-03T12:53:21.674Z,24.87
2022-12-03T12:55:55.343Z,28.53
2022-12-03T12:58:24.379Z,25.50
2022-12-03T13:00:54.492Z,23.83
2022-12-03T13:03:25.819Z,25.23
2022-12-03T13:05:54.763Z,25.00
2022-12-03T13:08:27.202Z,26.33
2022-12-03T13:10:58.152Z,20.80
2022-12-03T13:13:30.834Z,27.63
2022-12-03T13:16:02.293Z,21.67
2022-12-03T13:18:34.749Z,23.20
2022-12-03T13:21:14.494Z,25.17
2022-12-03T13:23:43.140Z,22.57
2022-12-03T13:26:36.045Z,29.90
2022-12-03T13:29:14.635Z,21.77
2022-12-03T13:31:49.612Z,22.23
2022-12-03T13:34:21.239Z,22.87
2022-12-03T13:36:57.169Z,24.00
2022-12-03T13:39:32.319Z,29.10
2022-12-03T13:42:33.451Z,22.43
2022-12-03T13:45:02.731Z,20.23
2022-12-03T13:47:31.415Z,21.93
2022-12-03T13:50:04.230Z,25.27
2022-12-03T13:52:34.131Z,22.83
2022-12-03T13:55:04.071Z,23.17
2022-12-03T13:57:34.119Z,22.10
2022-12-03T14:00:03.362Z,26.90
2022-12-03T14:02:32.241Z,22.47
2022-12-03T14:05:01.008Z,24.00
2022-12-03T14:07:29.795Z,24.73
2022-12-03T14:09:58.408Z,23.20
2022-12-03T14:12:27.019Z,23.80
2022-12-03T14:14:57.147Z,22.73
2022-12-03T14:17:25.742Z,23.67
2022-12-03T14:19:54.732Z,21.77
2022-12-03T14:22:25.335Z,22.70
2022-12-03T14:24:54.546Z,22.33
2022-12-03T14:27:24.574Z,25.20
2022-12-03T14:29:53.698Z,22.17
2022-12-03T14:32:23.960Z,24.13
2022-12-03T14:34:52.605Z,28.10
2022-12-03T14:37:21.625Z,21.83
2022-12-03T14:39:50.247Z,20.00
2022-12-03T14:42:18.868Z,23.50
2022-12-03T14:44:49.340Z,20.17
2022-12-03T14:47:19.446Z,21.93
2022-12-03T14:49:49.975Z,18.17
2022-12-03T14:52:19.352Z,19.83
2022-12-03T14:54:47.998Z,23.90
2022-12-03T14:57:16.912Z,21.47
2022-12-03T14:59:46.852Z,15.97
2022-12-03T15:02:15.558Z,19.53
2022-12-03T15:04:44.284Z,18.90
2022-12-03T15:07:14.342Z,17.90
2022-12-03T15:09:42.919Z,17.70
2022-12-03T15:12:11.527Z,17.40
2022-12-03T15:14:41.185Z,21.37
2022-12-03T15:17:09.878Z,22.77
2022-12-03T15:19:38.492Z,18.43
2022-12-03T15:22:07.078Z,15.80
2022-12-03T15:24:37.055Z,20.03
2022-12-03T15:27:05.878Z,20.07
2022-12-03T15:29:34.533Z,14.97
2022-12-03T15:32:03.205Z,18.50
2022-12-03T15:34:31.803Z,23.90
2022-12-03T15:37:00.423Z,21.30
2022-12-03T15:39:29.574Z,16.90
2022-12-03T15:41:59.541Z,17.47
2022-12-03T15:44:28.222Z,18.90
2022-12-03T15:46:56.830Z,19.07
2022-12-03T15:49:25.430Z,20.80
2022-12-03T15:51:54.081Z,20.13
2022-12-03T15:54:22.687Z,21.87
2022-12-03T15:56:56.855Z,19.17
2022-12-03T15:59:27.297Z,20.80
2022-12-03T16:01:55.981Z,21.87
2022-12-03T16:04:24.661Z,21.80
2022-12-03T16:06:53.335Z,21.37
2022-12-03T16:09:27.045Z,22.93
2022-12-03T16:11:56.216Z,21.13
2022-12-03T16:14:24.831Z,19.97
2022-12-03T16:16:54.997Z,22.20
2022-12-03T16:19:23.564Z,21.67
2022-12-03T16:21:52.245Z,27.00
2022-12-03T16:24:20.863Z,21.53
2022-12-03T16:26:49.494Z,19.60
2022-12-03T16:29:18.161Z,21.97
2022-12-03T16:31:46.897Z,20.87
2022-12-03T16:34:16.935Z,20.27
2022-12-03T16:36:46.523Z,21.70
2022-12-03T16:39:16.286Z,21.50
2022-12-03T16:41:44.953Z,22.60
2022-12-03T16:44:30.298Z,25.47
2022-12-03T16:47:00.134Z,22.20
2022-12-03T16:49:30.143Z,22.50
2022-12-03T16:51:58.824Z,21.87
2022-12-03T16:54:27.432Z,23.60
2022-12-03T16:56:56.057Z,19.10
2022-12-03T16:59:24.695Z,21.00
2022-12-03T17:01:53.396Z,19.67
2022-12-03T17:04:22.055Z,29.47
2022-12-03T17:06:52.060Z,22.70
2022-12-03T17:09:20.747Z,19.70
2022-12-03T17:11:49.426Z,23.90
2022-12-03T17:14:18.082Z,19.90
2022-12-03T17:16:46.703Z,21.40
2022-12-03T17:19:15.840Z,24.40
2022-12-03T17:21:44.791Z,22.87
2022-12-03T17:24:14.865Z,21.57
2022-12-03T17:26:44.550Z,22.60
2022-12-03T17:29:14.137Z,21.90
2022-12-03T17:31:43.108Z,20.60
2022-12-03T17:34:11.814Z,23.60
2022-12-03T17:36:40.482Z,22.00
2022-12-03T17:39:09.112Z,24.90
2022-12-03T17:41:39.047Z,24.60
2022-12-03T17:44:11.377Z,25.00
2022-12-03T17:46:41.658Z,22.20
2022-12-03T17:49:10.404Z,20.73
2022-12-03T17:51:39.324Z,19.93
2022-12-03T17:54:07.954Z,23.50
2022-12-03T17:56:36.964Z,22.03
2022-12-03T17:59:07.002Z,25.00
2022-12-03T18:01:35.699Z,23.43
2022-12-03T18:04:04.519Z,19.50
2022-12-03T18:06:33.213Z,24.73
2022-12-03T18:09:01.830Z,28.37
2022-12-03T18:11:30.507Z,20.10
2022-12-03T18:14:01.275Z,23.57
2022-12-03T18:16:31.332Z,22.10
2022-12-03T18:19:06.091Z,20.83
2022-12-03T18:21:35.592Z,22.33
2022-12-03T18:24:04.628Z,21.20
2022-12-03T18:26:33.208Z,19.87
2022-12-03T18:29:01.820Z,21.47
2022-12-03T18:31:31.890Z,22.23
2022-12-03T18:34:00.518Z,29.17
2022-12-03T18:36:32.430Z,22.87
2022-12-03T18:39:01.424Z,21.87
2022-12-03T18:41:30.077Z,22.87
2022-12-03T18:43:59.737Z,22.57
2022-12-03T18:46:52.597Z,23.63
2022-12-03T18:49:18.430Z,20.70
2022-12-03T18:51:48.309Z,20.73
2022-12-03T18:54:17.202Z,20.03
2022-12-03T18:56:45.836Z,24.73
2022-12-03T18:59:14.414Z,22.70
2022-12-03T19:01:43.062Z,21.33
2022-12-03T19:04:11.866Z,19.40
2022-12-03T19:06:41.900Z,20.67
2022-12-03T19:09:11.230Z,25.43
2022-12-03T19:11:39.892Z,22.57
2022-12-03T19:14:09.044Z,21.70
2022-12-03T19:16:38.644Z,20.83
2022-12-03T19:19:08.139Z,21.43
2022-12-03T19:21:37.219Z,22.97
2022-12-03T19:24:25.011Z,19.60
2022-12-03T19:26:55.297Z,20.70
2022-12-03T19:29:24.073Z,19.87
2022-12-03T19:31:53.072Z,22.57
2022-12-03T19:34:21.911Z,20.50
2022-12-03T19:36:50.589Z,20.67
2022-12-03T19:39:20.555Z,21.33
2022-12-03T19:41:49.214Z,20.77
2022-12-03T19:44:18.978Z,19.07
2022-12-03T19:46:49.768Z,18.37
2022-12-03T19:49:20.881Z,17.47
2022-12-03T19:51:49.780Z,23.27
2022-12-03T19:54:19.897Z,21.37
2022-12-03T19:56:48.513Z,22.83
2022-12-03T19:59:17.145Z,21.13
2022-12-03T20:01:45.923Z,21.50
2022-12-03T20:04:14.748Z,21.67
2022-12-03T20:06:45.268Z,19.37
2022-12-03T20:09:17.564Z,20.90
2022-12-03T20:11:47.772Z,20.80
2022-12-03T20:14:17.376Z,19.60
2022-12-03T20:16:46.384Z,19.50
2022-12-03T20:19:17.224Z,21.50
2022-12-03T20:21:46.277Z,18.20
2022-12-03T20:24:16.388Z,15.93
2022-12-03T20:26:45.091Z,19.70
2022-12-03T20:29:15.113Z,27.93
2022-12-03T20:31:43.751Z,21.00
2022-12-03T20:34:12.430Z,22.60
2022-12-03T20:36:41.207Z,21.17
2022-12-03T20:39:09.818Z,21.00
2022-12-03T20:41:38.950Z,21.57
2022-12-03T20:44:07.880Z,23.60
2022-12-03T20:46:37.883Z,28.33
2022-12-03T20:49:06.551Z,22.30
2022-12-03T20:51:35.447Z,20.00
2022-12-03T20:54:04.149Z,21.33
2022-12-03T20:56:34.019Z,19.90
2022-12-03T20:59:04.737Z,22.60
2022-12-03T21:01:34.062Z,22.60
2022-12-03T21:04:04.731Z,25.00
2022-12-03T21:06:41.973Z,25.03
2022-12-03T21:09:11.660Z,25.90
2022-12-03T21:11:42.160Z,26.83
2022-12-03T21:14:11.908Z,24.53
2022-12-03T21:19:32.173Z,27.33
2022-12-03T21:22:00.840Z,27.03
2022-12-03T21:24:29.843Z,23.07
2022-12-03T21:26:58.427Z,27.40
2022-12-03T21:29:27.033Z,25.90
2022-12-03T21:31:55.658Z,26.87
2022-12-03T21:34:24.347Z,28.40
2022-12-03T21:36:54.339Z,29.80
2022-12-03T21:39:23.024Z,25.83
2022-12-03T21:42:34.328Z,29.23
2022-12-03T21:44:40.283Z,29.47
2022-12-03T21:47:14.370Z,26.10
2022-12-03T21:49:43.361Z,29.60
2022-12-03T21:52:13.307Z,27.90
2022-12-03T21:54:41.948Z,30.00
2022-12-03T21:57:10.543Z,27.70
2022-12-03T21:59:39.203Z,29.33
2022-12-03T22:02:07.913Z,27.13
2022-12-03T22:04:36.796Z,26.27
2022-12-03T22:07:06.347Z,33.03
2022-12-03T22:09:36.439Z,30.97
2022-12-03T22:12:05.558Z,30.17
2022-12-03T22:14:34.243Z,32.20
2022-12-03T22:17:02.991Z,33.33
2022-12-03T22:19:31.613Z,31.13
2022-12-03T22:22:00.263Z,29.03
2022-12-03T22:24:28.979Z,31.20
2022-12-03T22:26:58.909Z,28.90
2022-12-03T22:29:27.571Z,32.53
2022-12-03T22:31:56.142Z,34.20
2022-12-03T22:34:24.807Z,35.50
2022-12-03T22:36:53.443Z,34.40
2022-12-03T22:39:22.092Z,35.73
2022-12-03T22:41:50.688Z,34.70
2022-12-03T22:44:20.635Z,29.10
2022-12-03T22:46:49.275Z,25.63
2022-12-03T22:49:17.949Z,27.37
2022-12-03T22:51:47.079Z,24.93
2022-12-03T22:54:19.386Z,25.27
2022-12-03T22:56:52.308Z,29.90
2022-12-03T22:59:22.291Z,29.97
2022-12-03T23:01:50.910Z,27.70
2022-12-03T23:04:19.556Z,26.97
2022-12-03T23:06:48.241Z,26.27
2022-12-03T23:09:16.832Z,29.60
2022-12-03T23:11:46.166Z,33.80
2022-12-03T23:14:15.072Z,27.60
2022-12-03T23:16:45.210Z,33.40
2022-12-03T23:19:14.683Z,29.43
2022-12-03T23:21:43.328Z,27.17
2022-12-03T23:24:12.032Z,29.90
2022-12-03T23:26:40.692Z,29.07
2022-12-03T23:29:09.339Z,23.13
2022-12-03T23:31:38.041Z,28.23
2022-12-03T23:34:08.148Z,26.93
2022-12-03T23:36:36.790Z,22.73
2022-12-03T23:39:05.551Z,28.80
2022-12-03T23:41:34.249Z,26.20
2022-12-03T23:44:02.983Z,29.20
2022-12-03T23:46:31.697Z,27.93
2022-12-03T23:49:00.436Z,26.20
2022-12-03T23:51:30.582Z,25.20
2022-12-03T23:53:59.185Z,28.17
2022-12-03T23:56:29.853Z,26.73
2022-12-03T23:58:59.331Z,28.93
